createdAt,value
2018-05-15T00:02:17.592Z,7.07
2018-05-15T00:05:50.095Z,7.33
2018-05-15T00:09:22.606Z,7.07
2018-05-15T00:12:55.088Z,8.63
2018-05-15T00:16:27.572Z,7.10
2018-05-15T00:20:00.076Z,6.93
2018-05-15T00:23:40.620Z,6.40
2018-05-15T00:27:13.149Z,7.00
2018-05-15T00:30:46.404Z,7.87
2018-05-15T00:34:18.891Z,7.53
2018-05-15T00:37:51.384Z,7.50
2018-05-15T00:41:23.872Z,7.57
2018-05-15T00:44:56.365Z,7.50
2018-05-15T00:48:28.867Z,7.60
2018-05-15T00:52:01.340Z,6.73
2018-05-15T00:55:44.598Z,7.67
2018-05-15T00:59:17.097Z,8.20
2018-05-15T01:02:49.617Z,7.20
2018-05-15T01:06:22.092Z,6.50
2018-05-15T01:09:54.605Z,7.17
2018-05-15T01:13:27.125Z,6.63
2018-05-15T01:17:00.380Z,8.23
2018-05-15T01:20:32.851Z,6.60
2018-05-15T01:24:05.340Z,6.47
2018-05-15T01:27:37.825Z,7.03
2018-05-15T01:31:10.304Z,8.27
2018-05-15T01:34:42.790Z,8.60
2018-05-15T01:38:15.300Z,6.30
2018-05-15T01:41:47.785Z,7.80
2018-05-15T01:45:20.264Z,8.47
2018-05-15T01:48:52.824Z,7.67
2018-05-15T01:52:25.309Z,6.60
2018-05-15T01:55:57.802Z,6.40
2018-05-15T01:59:30.292Z,7.13
2018-05-15T02:03:02.788Z,8.00
2018-05-15T02:06:35.284Z,7.17
2018-05-15T02:10:08.523Z,7.23
2018-05-15T02:13:41.011Z,6.20
2018-05-15T02:17:13.551Z,7.73
2018-05-15T02:20:46.801Z,6.57
2018-05-15T02:24:19.279Z,6.83
2018-05-15T02:27:51.767Z,7.27
2018-05-15T02:31:24.252Z,6.67
2018-05-15T02:34:56.752Z,7.00
2018-05-15T02:38:29.290Z,8.17
2018-05-15T02:42:01.767Z,7.90
2018-05-15T02:45:34.239Z,8.80
2018-05-15T02:49:06.720Z,7.87
2018-05-15T02:52:39.216Z,7.73
2018-05-15T02:56:11.713Z,7.83
2018-05-15T02:59:44.185Z,7.00
2018-05-15T03:03:16.678Z,11.40
2018-05-15T03:06:49.172Z,8.40
2018-05-15T03:10:21.647Z,8.33
2018-05-15T03:13:54.125Z,7.57
2018-05-15T03:17:26.604Z,8.30
2018-05-15T03:20:59.115Z,10.83
2018-05-15T03:24:31.596Z,7.80
2018-05-15T03:28:04.071Z,7.57
2018-05-15T03:31:36.556Z,8.77
2018-05-15T03:35:09.040Z,8.30
2018-05-15T03:38:41.517Z,7.93
2018-05-15T03:42:14.011Z,8.13
2018-05-15T03:45:46.664Z,8.83
2018-05-15T03:49:19.176Z,7.23
2018-05-15T03:52:51.655Z,10.13
2018-05-15T03:56:24.144Z,7.00
2018-05-15T03:59:57.405Z,10.30
2018-05-15T04:03:41.729Z,8.73
2018-05-15T04:07:28.277Z,7.97
2018-05-15T04:11:00.783Z,9.50
2018-05-15T04:14:33.261Z,8.57
2018-05-15T04:18:05.735Z,9.97
2018-05-15T04:21:38.220Z,11.93
2018-05-15T04:25:10.705Z,9.27
2018-05-15T04:28:43.183Z,9.40
2018-05-15T04:32:16.442Z,8.80
2018-05-15T04:35:48.945Z,9.47
2018-05-15T04:39:21.448Z,10.10
2018-05-15T04:42:53.960Z,10.33
2018-05-15T04:46:27.227Z,8.87
2018-05-15T04:49:59.736Z,9.37
2018-05-15T04:53:32.204Z,9.90
2018-05-15T04:57:04.689Z,10.13
2018-05-15T05:00:37.173Z,9.17
2018-05-15T05:04:09.704Z,10.33
2018-05-15T05:07:42.185Z,10.53
2018-05-15T05:11:14.672Z,10.47
2018-05-15T05:14:47.163Z,11.83
2018-05-15T05:18:19.651Z,13.83
2018-05-15T05:21:52.141Z,9.83
2018-05-15T05:25:24.632Z,10.50
2018-05-15T05:28:57.116Z,8.90
2018-05-15T05:32:30.372Z,10.13
2018-05-15T05:36:02.848Z,8.97
2018-05-15T05:39:36.093Z,9.50
2018-05-15T05:43:08.862Z,10.17
2018-05-15T05:46:41.337Z,9.97
2018-05-15T05:50:13.819Z,9.93
2018-05-15T05:53:46.304Z,11.50
2018-05-15T05:57:18.784Z,10.60
2018-05-15T06:00:51.278Z,10.57
2018-05-15T06:04:23.763Z,9.40
2018-05-15T06:07:56.254Z,10.30
2018-05-15T06:11:28.748Z,10.00
2018-05-15T06:15:01.232Z,10.50
2018-05-15T06:18:33.723Z,10.40
2018-05-15T06:22:06.211Z,10.80
2018-05-15T06:25:38.699Z,10.93
2018-05-15T06:29:11.968Z,10.20
2018-05-15T06:32:44.485Z,9.60
2018-05-15T06:36:17.723Z,9.70
2018-05-15T06:39:50.231Z,9.50
2018-05-15T06:43:22.724Z,8.60
2018-05-15T06:46:55.200Z,10.63
2018-05-15T06:50:27.696Z,9.27
2018-05-15T06:54:00.181Z,9.80
2018-05-15T06:57:32.668Z,9.03
2018-05-15T07:01:05.144Z,10.90
2018-05-15T07:04:37.637Z,9.03
2018-05-15T07:08:10.121Z,7.67
2018-05-15T07:11:43.392Z,7.37
2018-05-15T07:15:15.900Z,7.80
2018-05-15T07:18:48.384Z,10.23
2018-05-15T07:22:20.868Z,7.93
2018-05-15T07:25:53.346Z,6.37
2018-05-15T07:29:25.833Z,7.13
2018-05-15T07:32:59.090Z,12.57
2018-05-15T07:36:31.572Z,6.00
2018-05-15T07:40:04.088Z,6.50
2018-05-15T07:43:36.576Z,5.70
2018-05-15T07:47:09.831Z,6.10
2018-05-15T07:50:42.347Z,5.10
2018-05-15T07:54:14.843Z,4.93
2018-05-15T07:57:48.100Z,5.10
2018-05-15T08:01:20.583Z,4.80
2018-05-15T08:04:53.072Z,4.90
2018-05-15T08:08:25.560Z,5.30
2018-05-15T08:11:58.053Z,4.83
2018-05-15T08:15:30.564Z,4.10
2018-05-15T08:19:03.812Z,4.40
2018-05-15T08:22:36.394Z,5.40
2018-05-15T08:26:08.809Z,5.53
2018-05-15T08:29:41.289Z,5.50
2018-05-15T08:33:13.776Z,6.13
2018-05-15T08:36:47.037Z,4.13
2018-05-15T08:40:19.526Z,4.60
2018-05-15T08:43:52.009Z,5.03
2018-05-15T08:47:24.551Z,4.83
2018-05-15T08:50:57.043Z,5.33
2018-05-15T08:54:29.545Z,5.47
2018-05-15T08:58:02.032Z,4.43
2018-05-15T09:01:34.528Z,3.60
2018-05-15T09:05:07.012Z,3.83
2018-05-15T09:08:39.482Z,4.07
2018-05-15T09:12:11.980Z,4.07
2018-05-15T09:15:44.548Z,4.80
2018-05-15T09:19:17.112Z,4.77
2018-05-15T09:22:49.516Z,5.50
2018-05-15T09:26:22.174Z,5.60
2018-05-15T09:29:54.667Z,5.30
2018-05-15T09:33:27.143Z,4.77
2018-05-15T09:36:59.649Z,9.13
2018-05-15T09:40:32.912Z,4.17
2018-05-15T09:44:05.416Z,3.93
2018-05-15T09:47:37.893Z,4.30
2018-05-15T09:51:10.391Z,7.40
2018-05-15T09:54:43.644Z,3.53
2018-05-15T09:58:16.893Z,3.53
2018-05-15T10:01:49.378Z,4.27
2018-05-15T10:05:21.861Z,4.07
2018-05-15T10:08:54.352Z,3.83
2018-05-15T10:12:26.832Z,4.97
2018-05-15T10:15:59.320Z,4.00
2018-05-15T10:19:31.843Z,4.87
2018-05-15T10:23:04.318Z,5.00
2018-05-15T10:26:37.597Z,4.13
2018-05-15T10:30:10.085Z,5.70
2018-05-15T10:33:43.337Z,4.57
2018-05-15T10:37:15.888Z,6.13
2018-05-15T10:40:48.331Z,3.70
2018-05-15T10:44:20.819Z,4.73
2018-05-15T10:47:53.297Z,4.47
2018-05-15T10:51:25.795Z,4.73
2018-05-15T10:54:59.048Z,6.00
2018-05-15T10:58:31.876Z,5.90
2018-05-15T11:02:04.823Z,4.97
2018-05-15T11:05:37.311Z,5.03
2018-05-15T11:09:09.792Z,5.70
2018-05-15T11:12:42.331Z,4.93
2018-05-15T11:16:14.776Z,5.47
2018-05-15T11:19:59.120Z,4.87
2018-05-15T11:23:43.432Z,4.40
2018-05-15T11:27:16.679Z,4.47
2018-05-15T11:30:49.167Z,4.53
2018-05-15T11:34:21.670Z,5.13
2018-05-15T11:37:54.160Z,5.40
2018-05-15T11:41:26.649Z,5.23
2018-05-15T11:44:59.914Z,5.20
2018-05-15T11:48:32.926Z,6.50
2018-05-15T11:52:05.731Z,4.93
2018-05-15T11:55:42.711Z,5.10
2018-05-15T11:59:09.961Z,6.40
2018-05-15T12:02:42.559Z,7.30
2018-05-15T12:06:14.941Z,6.93
2018-05-15T12:09:47.443Z,15.17
2018-05-15T12:13:20.700Z,6.77
2018-05-15T12:16:53.177Z,6.70
2018-05-15T12:20:25.668Z,7.60
2018-05-15T12:23:58.156Z,7.00
2018-05-15T12:27:30.635Z,8.07
2018-05-15T12:31:03.119Z,7.37
2018-05-15T12:34:35.608Z,7.27
2018-05-15T12:38:08.098Z,7.47
2018-05-15T12:41:40.660Z,13.23
2018-05-15T12:45:13.088Z,6.80
2018-05-15T12:48:45.580Z,6.80
2018-05-15T12:52:18.085Z,8.03
2018-05-15T12:55:50.565Z,8.63
2018-05-15T12:59:23.048Z,6.23
2018-05-15T13:02:55.540Z,5.40
2018-05-15T13:06:28.016Z,5.97
2018-05-15T13:10:00.494Z,6.63
2018-05-15T13:13:33.001Z,9.23
2018-05-15T13:17:05.484Z,6.00
2018-05-15T13:20:37.962Z,6.83
2018-05-15T13:24:10.448Z,7.50
2018-05-15T13:27:42.931Z,5.93
2018-05-15T13:31:15.435Z,6.80
2018-05-15T13:34:47.925Z,6.47
2018-05-15T13:38:20.440Z,5.87
2018-05-15T13:41:52.927Z,6.83
2018-05-15T13:45:25.419Z,5.13
2018-05-15T13:48:57.908Z,5.43
2018-05-15T13:52:30.419Z,4.83
2018-05-15T13:56:02.905Z,5.53
2018-05-15T13:59:36.149Z,4.50
2018-05-15T14:03:08.637Z,4.87
2018-05-15T14:06:41.161Z,4.70
2018-05-15T14:10:13.622Z,6.40
2018-05-15T14:13:46.112Z,6.00
2018-05-15T14:17:18.609Z,5.47
2018-05-15T14:20:51.867Z,5.70
2018-05-15T14:24:24.344Z,4.33
2018-05-15T14:27:56.832Z,7.17
2018-05-15T14:31:29.422Z,6.60
2018-05-15T14:35:01.816Z,5.03
2018-05-15T14:38:34.291Z,6.00
2018-05-15T14:42:18.622Z,6.37
2018-05-15T14:45:51.189Z,4.00
2018-05-15T14:49:23.600Z,3.83
2018-05-15T14:52:56.088Z,4.50
2018-05-15T14:56:28.574Z,6.70
2018-05-15T15:00:01.064Z,4.10
2018-05-15T15:03:33.560Z,4.00
2018-05-15T15:07:06.050Z,5.60
2018-05-15T15:10:38.554Z,3.87
2018-05-15T15:14:11.820Z,4.00
2018-05-15T15:17:44.350Z,7.00
2018-05-15T15:21:16.844Z,5.50
2018-05-15T15:24:49.339Z,4.53
2018-05-15T15:28:21.846Z,5.03
2018-05-15T15:31:54.335Z,4.90
2018-05-15T15:35:26.824Z,4.73
2018-05-15T15:38:59.305Z,4.07
2018-05-15T15:42:31.840Z,4.97
2018-05-15T15:46:05.053Z,5.37
2018-05-15T15:49:37.557Z,4.20
2018-05-15T15:53:11.568Z,4.10
2018-05-15T15:56:44.050Z,9.17
2018-05-15T16:00:16.548Z,4.00
2018-05-15T16:03:49.040Z,4.63
2018-05-15T16:07:21.512Z,4.20
2018-05-15T16:10:53.997Z,3.10
2018-05-15T16:14:26.487Z,4.23
2018-05-15T16:17:58.962Z,4.10
2018-05-15T16:21:31.449Z,3.90
2018-05-15T16:25:03.932Z,4.87
2018-05-15T16:28:37.211Z,5.00
2018-05-15T16:32:09.692Z,4.70
2018-05-15T16:35:42.197Z,5.20
2018-05-15T16:39:14.696Z,6.10
2018-05-15T16:42:47.955Z,6.87
2018-05-15T16:46:20.476Z,7.60
2018-05-15T16:49:53.733Z,6.63
2018-05-15T16:53:26.342Z,7.47
2018-05-15T16:56:59.501Z,6.53
2018-05-15T17:00:31.996Z,7.07
2018-05-15T17:04:04.494Z,7.10
2018-05-15T17:07:36.996Z,5.50
2018-05-15T17:15:17.299Z,6.83
2018-05-15T17:18:50.547Z,6.43
2018-05-15T17:22:23.040Z,4.90
2018-05-15T17:25:55.521Z,7.00
2018-05-15T17:29:28.012Z,5.73
2018-05-15T17:33:00.508Z,5.07
2018-05-15T17:36:32.983Z,5.40
2018-05-15T17:40:05.473Z,6.37
2018-05-15T17:43:37.965Z,5.77
2018-05-15T17:47:11.227Z,5.77
2018-05-15T17:50:43.708Z,5.53
2018-05-15T17:54:16.196Z,6.13
2018-05-15T17:57:49.608Z,6.10
2018-05-15T18:01:22.093Z,5.30
2018-05-15T18:04:54.579Z,5.47
2018-05-15T18:08:27.139Z,5.30
2018-05-15T18:12:00.335Z,6.93
2018-05-15T18:15:32.812Z,7.23
2018-05-15T18:19:06.408Z,7.10
2018-05-15T18:22:38.902Z,7.97
2018-05-15T18:26:11.409Z,6.73
2018-05-15T18:29:43.921Z,7.50
2018-05-15T18:33:17.230Z,6.93
2018-05-15T18:36:49.661Z,7.40
2018-05-15T18:40:22.140Z,8.23
2018-05-15T18:43:54.632Z,8.07
2018-05-15T18:47:27.133Z,8.87
2018-05-15T18:50:59.628Z,8.90
2018-05-15T18:54:32.866Z,8.40
2018-05-15T18:58:05.405Z,8.30
2018-05-15T19:01:37.882Z,8.27
2018-05-15T19:05:11.135Z,9.57
2018-05-15T19:08:43.630Z,8.77
2018-05-15T19:12:16.117Z,8.57
2018-05-15T19:15:48.604Z,9.63
2018-05-15T19:19:21.165Z,10.57
2018-05-15T19:22:53.592Z,10.00
2018-05-15T19:26:26.072Z,8.70
2018-05-15T19:29:58.566Z,8.90
2018-05-15T19:33:37.488Z,10.27
2018-05-15T19:37:11.649Z,9.07
2018-05-15T19:40:46.666Z,9.80
2018-05-15T19:44:19.927Z,10.27
2018-05-15T19:47:53.754Z,11.30
2018-05-15T19:51:26.291Z,8.70
2018-05-15T19:54:58.810Z,9.10
2018-05-15T19:58:31.304Z,11.40
2018-05-15T20:02:03.823Z,11.13
2018-05-15T20:05:36.358Z,11.80
2018-05-15T20:09:09.598Z,10.60
2018-05-15T20:12:42.839Z,10.30
2018-05-15T20:16:15.375Z,9.80
2018-05-15T20:19:47.908Z,8.17
2018-05-15T20:23:20.383Z,9.60
2018-05-15T20:26:52.865Z,9.53
2018-05-15T20:30:25.400Z,10.23
2018-05-15T20:33:58.651Z,10.30
2018-05-15T20:37:31.526Z,9.37
2018-05-15T20:41:04.008Z,9.27
2018-05-15T20:44:36.529Z,10.30
2018-05-15T20:48:09.402Z,9.47
2018-05-15T20:51:41.896Z,9.07
2018-05-15T20:55:14.410Z,9.50
2018-05-15T20:58:47.686Z,9.63
2018-05-15T21:02:20.200Z,10.90
2018-05-15T21:05:53.032Z,8.30
2018-05-15T21:09:25.518Z,9.20
2018-05-15T21:12:58.008Z,8.93
2018-05-15T21:16:30.499Z,8.77
2018-05-15T21:20:03.008Z,8.97
2018-05-15T21:23:36.265Z,9.17
2018-05-15T21:27:08.771Z,10.30
2018-05-15T21:30:41.257Z,8.50
2018-05-15T21:34:13.756Z,9.40
2018-05-15T21:37:47.005Z,8.50
2018-05-15T21:41:19.783Z,8.83
2018-05-15T21:44:52.268Z,9.50
2018-05-15T21:48:24.755Z,8.73
2018-05-15T21:51:57.229Z,8.33
2018-05-15T21:55:30.212Z,8.80
2018-05-15T21:59:03.219Z,8.57
2018-05-15T22:02:35.718Z,8.13
2018-05-15T22:06:08.192Z,8.83
2018-05-15T22:09:40.681Z,9.17
2018-05-15T22:13:25.018Z,8.23
2018-05-15T22:17:09.341Z,8.60
2018-05-15T22:20:54.373Z,9.53
2018-05-15T22:24:29.582Z,9.50
2018-05-15T22:28:02.062Z,8.67
2018-05-15T22:31:34.533Z,8.90
2018-05-15T22:35:07.796Z,9.10
2018-05-15T22:38:40.289Z,9.80
2018-05-15T22:42:12.789Z,8.83
2018-05-15T22:45:46.044Z,8.60
2018-05-15T22:49:18.528Z,8.70
2018-05-15T22:52:51.010Z,8.77
2018-05-15T22:56:23.484Z,9.50
2018-05-15T22:59:56.057Z,10.73
2018-05-15T23:03:28.562Z,11.63
2018-05-15T23:07:10.302Z,9.77
2018-05-15T23:10:43.552Z,9.30
2018-05-15T23:14:16.029Z,9.10
2018-05-15T23:17:48.509Z,9.23
2018-05-15T23:21:20.992Z,9.53
2018-05-15T23:24:53.487Z,8.13
2018-05-15T23:28:25.968Z,8.17
2018-05-15T23:31:59.227Z,10.10
2018-05-15T23:35:31.701Z,9.07
2018-05-15T23:39:04.964Z,9.63
2018-05-15T23:42:37.512Z,10.07
2018-05-15T23:46:09.983Z,9.53
2018-05-15T23:49:42.467Z,10.03
2018-05-15T23:53:14.952Z,9.37
2018-05-15T23:56:47.460Z,10.20
